Time,TemperatureF,DewpointF,PressureIn,WindDirection,WindDirectionDegrees,WindSpeedMPH,WindSpeedGustMPH,Humidity,HourlyPrecipIn,Conditions,Clouds,dailyrainin,SoftwareType,DateUTC
2013-02-19 00:04:00,13.9,5.0,29.76,NNW,328,2.0,9.0,67,0.00,,,0.00,Wunderground v.1.15,2013-02-19 09:04:00,
2013-02-19 00:09:00,14.0,4.7,29.76,NNW,347,2.0,2.0,66,0.00,,,0.00,Wunderground v.1.15,2013-02-19 09:09:00,
2013-02-19 00:15:00,14.0,5.1,29.76,NNW,347,1.0,9.0,67,0.00,,,0.00,Wunderground v.1.15,2013-02-19 09:15:00,
2013-02-19 00:21:00,14.0,5.1,29.76,NNW,347,0.0,9.0,67,0.00,,,0.00,Wunderground v.1.15,2013-02-19 09:21:00,
2013-02-19 00:27:00,13.9,5.0,29.77,ESE,109,0.0,9.0,67,0.00,,,0.00,Wunderground v.1.15,2013-02-19 09:27:00,
2013-02-19 00:32:00,13.8,4.9,29.76,NE,48,0.0,9.0,67,0.00,,,0.00,Wunderground v.1.15,2013-02-19 09:32:00,
2013-02-19 00:38:00,13.9,5.0,29.76,NE,54,1.0,9.0,67,0.00,,,0.00,Wunderground v.1.15,2013-02-19 09:38:00,
2013-02-19 00:43:00,13.8,4.9,29.77,NE,54,0.0,9.0,67,0.00,,,0.00,Wunderground v.1.15,2013-02-19 09:43:00,
2013-02-19 00:49:00,13.7,4.8,29.77,NNE,16,0.0,9.0,67,0.00,,,0.00,Wunderground v.1.15,2013-02-19 09:49:00,
2013-02-19 00:55:00,13.6,4.7,29.77,NNE,16,0.0,9.0,67,0.00,,,0.00,Wunderground v.1.15,2013-02-19 09:55:00,
2013-02-19 01:01:00,13.7,4.8,29.76,North,350,0.0,1.0,67,0.00,,,0.00,Wunderground v.1.15,2013-02-19 10:01:00,
2013-02-19 01:07:00,13.7,4.8,29.77,NNW,347,0.0,1.0,67,0.00,,,0.00,Wunderground v.1.15,2013-02-19 10:07:00,
2013-02-19 01:13:00,13.7,4.8,29.78,North,9,0.0,2.0,67,0.00,,,0.00,Wunderground v.1.15,2013-02-19 10:13:00,
2013-02-19 01:18:00,13.9,4.6,29.77,NNE,14,0.0,2.0,66,0.00,,,0.00,Wunderground v.1.15,2013-02-19 10:18:00,
2013-02-19 01:24:00,13.9,4.6,29.78,NNE,15,0.0,0.0,66,0.00,,,0.00,Wunderground v.1.15,2013-02-19 10:24:00,
2013-02-19 01:29:00,13.9,4.6,29.78,North,4,0.0,0.0,66,0.00,,,0.00,Wunderground v.1.15,2013-02-19 10:29:00,
2013-02-19 01:35:00,13.9,5.0,29.78,NNW,345,0.0,2.0,67,0.00,,,0.00,Wunderground v.1.15,2013-02-19 10:35:00,
2013-02-19 01:41:00,14.1,5.1,29.77,NNW,345,0.0,0.0,67,0.00,,,0.00,Wunderground v.1.15,2013-02-19 10:41:00,
2013-02-19 01:47:00,14.3,5.7,29.78,NNE,32,0.0,3.0,68,0.00,,,0.00,Wunderground v.1.15,2013-02-19 10:47:00,
2013-02-19 01:53:00,14.4,6.1,29.78,NE,37,1.0,5.0,69,0.00,,,0.00,Wunderground v.1.15,2013-02-19 10:53:00,
2013-02-19 01:58:00,14.5,6.2,29.78,North,4,2.0,5.0,69,0.00,,,0.00,Wunderground v.1.15,2013-02-19 10:58:00,
2013-02-19 02:03:00,14.5,6.2,29.76,North,4,2.0,7.0,69,0.00,,,0.00,Wunderground v.1.15,2013-02-19 11:03:00,
2013-02-19 02:09:00,14.4,6.4,29.77,NNW,346,2.0,7.0,70,0.00,,,0.00,Wunderground v.1.15,2013-02-19 11:09:00,
2013-02-19 02:14:00,14.3,6.3,29.77,North,4,3.0,7.0,70,0.00,,,0.00,Wunderground v.1.15,2013-02-19 11:14:00,
2013-02-19 02:20:00,14.3,6.6,29.77,North,8,1.0,1.0,71,0.00,,,0.00,Wunderground v.1.15,2013-02-19 11:20:00,
2013-02-19 02:26:00,14.1,5.8,29.78,NNW,338,0.0,7.0,69,0.00,,,0.00,Wunderground v.1.15,2013-02-19 11:26:00,
2013-02-19 02:32:00,14.1,6.1,29.79,WSW,254,1.0,7.0,70,0.00,,,0.00,Wunderground v.1.15,2013-02-19 11:32:00,
2013-02-19 02:37:00,14.1,6.1,29.79,NNW,327,1.0,7.0,70,0.00,,,0.00,Wunderground v.1.15,2013-02-19 11:37:00,
2013-02-19 02:43:00,14.3,6.3,29.78,NW,310,2.0,7.0,70,0.00,,,0.00,Wunderground v.1.15,2013-02-19 11:43:00,
2013-02-19 02:49:00,13.8,5.8,29.78,NW,321,4.0,9.0,70,0.00,,,0.00,Wunderground v.1.15,2013-02-19 11:49:00,
2013-02-19 02:55:00,13.6,5.9,29.78,WSW,245,4.0,7.0,71,0.00,,,0.00,Wunderground v.1.15,2013-02-19 11:55:00,
2013-02-19 03:00:00,13.6,5.9,29.78,WNW,295,2.0,9.0,71,0.00,,,0.00,Wunderground v.1.15,2013-02-19 12:00:00,
2013-02-19 03:06:00,13.8,6.1,29.77,NW,316,1.0,9.0,71,0.00,,,0.00,Wunderground v.1.15,2013-02-19 12:06:00,
2013-02-19 03:11:00,13.8,6.1,29.77,NNW,328,1.0,9.0,71,0.00,,,0.00,Wunderground v.1.15,2013-02-19 12:11:00,
2013-02-19 03:17:00,13.8,6.1,29.77,NW,324,1.0,9.0,71,0.00,,,0.00,Wunderground v.1.15,2013-02-19 12:17:00,
2013-02-19 03:22:00,13.9,6.5,29.76,NW,324,1.0,9.0,72,0.00,,,0.00,Wunderground v.1.15,2013-02-19 12:22:00,
2013-02-19 03:27:00,14.1,6.4,29.76,NNW,339,1.0,9.0,71,0.00,,,0.00,Wunderground v.1.15,2013-02-19 12:27:00,
2013-02-19 03:32:00,14.3,6.6,29.75,NNW,341,1.0,9.0,71,0.00,,,0.00,Wunderground v.1.15,2013-02-19 12:32:00,
2013-02-19 03:37:00,14.3,6.6,29.75,NW,326,1.0,9.0,71,0.00,,,0.00,Wunderground v.1.15,2013-02-19 12:37:00,
2013-02-19 03:43:00,14.4,6.4,29.75,NW,324,1.0,9.0,70,0.00,,,0.00,Wunderground v.1.15,2013-02-19 12:43:00,
2013-02-19 03:49:00,14.4,7.0,29.74,NNW,339,0.0,9.0,72,0.00,,,0.00,Wunderground v.1.15,2013-02-19 12:49:00,
2013-02-19 03:54:00,14.2,7.1,29.74,North,359,0.0,9.0,73,0.00,,,0.00,Wunderground v.1.15,2013-02-19 12:54:00,
2013-02-19 04:00:00,14.2,6.8,29.74,NNE,19,1.0,1.0,72,0.00,,,0.00,Wunderground v.1.15,2013-02-19 13:00:00,
2013-02-19 04:05:00,14.1,6.7,29.73,NNW,343,1.0,3.0,72,0.00,,,0.00,Wunderground v.1.15,2013-02-19 13:05:00,
2013-02-19 04:11:00,14.0,6.6,29.72,North,359,0.0,3.0,72,0.00,,,0.00,Wunderground v.1.15,2013-02-19 13:11:00,
2013-02-19 04:17:00,14.0,6.6,29.72,North,350,0.0,3.0,72,0.00,,,0.00,Wunderground v.1.15,2013-02-19 13:17:00,
2013-02-19 04:22:00,14.2,6.5,29.72,NNW,347,0.0,3.0,71,0.00,,,0.00,Wunderground v.1.15,2013-02-19 13:22:00,
2013-02-19 04:27:00,14.4,6.7,29.70,NW,313,2.0,6.0,71,0.00,,,0.00,Wunderground v.1.15,2013-02-19 13:27:00,
2013-02-19 04:32:00,14.7,6.7,29.70,NW,322,5.0,7.0,70,0.00,,,0.00,Wunderground v.1.15,2013-02-19 13:32:00,
2013-02-19 04:38:00,15.1,7.4,29.70,NNW,346,5.0,7.0,71,0.00,,,0.00,Wunderground v.1.15,2013-02-19 13:38:00,
2013-02-19 04:44:00,15.4,7.4,29.70,NNW,330,1.0,4.0,70,0.00,,,0.00,Wunderground v.1.15,2013-02-19 13:44:00,
2013-02-19 04:50:00,15.4,7.0,29.70,NNW,330,0.0,3.0,69,0.00,,,0.00,Wunderground v.1.15,2013-02-19 13:50:00,
2013-02-19 04:56:00,15.4,7.4,29.70,NNW,330,0.0,3.0,70,0.00,,,0.00,Wunderground v.1.15,2013-02-19 13:56:00,
2013-02-19 05:01:00,15.5,7.8,29.70,NNW,330,0.0,0.0,71,0.00,,,0.00,Wunderground v.1.15,2013-02-19 14:01:00,
2013-02-19 05:07:00,15.5,6.8,29.70,NNW,330,0.0,0.0,68,0.00,,,0.00,Wunderground v.1.15,2013-02-19 14:07:00,
2013-02-19 05:12:00,15.5,6.8,29.70,NNW,330,0.0,0.0,68,0.00,,,0.00,Wunderground v.1.15,2013-02-19 14:12:00,
2013-02-19 05:17:00,15.5,7.1,29.70,WSW,251,0.0,1.0,69,0.00,,,0.00,Wunderground v.1.15,2013-02-19 14:17:00,
2013-02-19 05:22:00,15.6,7.6,29.70,South,191,1.0,3.0,70,0.00,,,0.00,Wunderground v.1.15,2013-02-19 14:22:00,
2013-02-19 05:28:00,15.5,7.5,29.69,SSW,206,2.0,3.0,70,0.00,,,0.00,Wunderground v.1.15,2013-02-19 14:28:00,
2013-02-19 05:34:00,15.5,7.5,29.69,WSW,256,1.0,2.0,70,0.00,,,0.00,Wunderground v.1.15,2013-02-19 14:34:00,
2013-02-19 05:40:00,15.5,8.1,29.69,WSW,256,0.0,0.0,72,0.00,,,0.00,Wunderground v.1.15,2013-02-19 14:40:00,
2013-02-19 05:47:00,15.4,8.3,29.69,WSW,256,0.0,0.0,73,0.00,,,0.00,Wunderground v.1.15,2013-02-19 14:47:00,
2013-02-19 05:52:00,15.4,8.0,29.69,WSW,255,0.0,0.0,72,0.00,,,0.00,Wunderground v.1.15,2013-02-19 14:52:00,
2013-02-19 05:57:00,15.5,9.0,29.69,WSW,256,0.0,0.0,75,0.00,,,0.00,Wunderground v.1.15,2013-02-19 14:57:00,
2013-02-19 06:02:00,15.5,8.4,29.68,WSW,256,0.0,0.0,73,0.00,,,0.00,Wunderground v.1.15,2013-02-19 15:02:00,
2013-02-19 06:07:00,15.5,8.7,29.68,WSW,256,0.0,0.0,74,0.00,,,0.00,Wunderground v.1.15,2013-02-19 15:07:00,
2013-02-19 06:14:00,15.4,8.6,29.68,NNW,338,0.0,1.0,74,0.00,,,0.00,Wunderground v.1.15,2013-02-19 15:14:00,
2013-02-19 06:19:00,15.2,8.4,29.68,NNW,339,0.0,1.0,74,0.00,,,0.00,Wunderground v.1.15,2013-02-19 15:19:00,
2013-02-19 06:25:00,15.0,8.2,29.68,NNW,339,0.0,0.0,74,0.00,,,0.00,Wunderground v.1.15,2013-02-19 15:25:00,
2013-02-19 06:31:00,15.0,8.8,29.68,NNW,339,0.0,0.0,76,0.00,,,0.00,Wunderground v.1.15,2013-02-19 15:31:00,
2013-02-19 06:36:00,15.1,8.9,29.67,NNW,339,0.0,0.0,76,0.00,,,0.00,Wunderground v.1.15,2013-02-19 15:36:00,
2013-02-19 06:42:00,15.2,9.0,29.67,NNW,339,0.0,0.0,76,0.00,,,0.00,Wunderground v.1.15,2013-02-19 15:42:00,
2013-02-19 06:47:00,15.1,8.3,29.67,NW,307,0.0,1.0,74,0.00,,,0.00,Wunderground v.1.15,2013-02-19 15:47:00,
2013-02-19 06:53:00,15.3,8.8,29.67,WSW,248,1.0,2.0,75,0.00,,,0.00,Wunderground v.1.15,2013-02-19 15:53:00,
2013-02-19 06:59:00,15.7,9.2,29.67,West,273,1.0,3.0,75,0.00,,,0.00,Wunderground v.1.15,2013-02-19 15:59:00,
2013-02-19 07:04:00,16.6,9.1,29.66,West,275,3.0,5.0,72,0.00,,,0.00,Wunderground v.1.15,2013-02-19 16:04:00,
2013-02-19 07:10:00,17.8,8.7,29.66,WNW,292,6.0,10.0,67,0.00,,,0.00,Wunderground v.1.15,2013-02-19 16:10:00,
2013-02-19 07:16:00,18.1,9.0,29.66,NW,316,8.0,10.0,67,0.00,,,0.00,Wunderground v.1.15,2013-02-19 16:16:00,
2013-02-19 07:22:00,18.0,9.5,29.65,WNW,287,3.0,5.0,69,0.00,,,0.00,Wunderground v.1.15,2013-02-19 16:22:00,
2013-02-19 07:28:00,18.0,9.2,29.65,NW,312,2.0,8.0,68,0.00,,,0.00,Wunderground v.1.15,2013-02-19 16:28:00,
2013-02-19 07:34:00,17.7,9.9,29.65,West,266,2.0,2.0,71,0.00,,,0.00,Wunderground v.1.15,2013-02-19 16:34:00,
2013-02-19 07:40:00,18.4,8.6,29.65,WNW,292,4.0,8.0,65,0.00,,,0.00,Wunderground v.1.15,2013-02-19 16:40:00,
2013-02-19 07:46:00,19.1,9.3,29.64,North,359,6.0,8.0,65,0.00,,,0.00,Wunderground v.1.15,2013-02-19 16:46:00,
2013-02-19 07:52:00,18.6,9.8,29.64,North,359,1.0,3.0,68,0.00,,,0.00,Wunderground v.1.15,2013-02-19 16:52:00,
2013-02-19 07:58:00,18.1,9.3,29.63,WNW,295,0.0,3.0,68,0.00,,,0.00,Wunderground v.1.15,2013-02-19 16:58:00,
2013-02-19 08:03:00,17.5,9.4,29.63,West,264,0.0,1.0,70,0.00,,,0.00,Wunderground v.1.15,2013-02-19 17:03:00,
2013-02-19 08:09:00,17.0,9.5,29.62,West,264,0.0,1.0,72,0.00,,,0.00,Wunderground v.1.15,2013-02-19 17:09:00,
2013-02-19 08:15:00,17.1,9.9,29.62,NNW,346,0.0,1.0,73,0.00,,,0.00,Wunderground v.1.15,2013-02-19 17:15:00,
2013-02-19 08:20:00,16.7,8.9,29.62,NW,305,0.0,1.0,71,0.00,,,0.00,Wunderground v.1.15,2013-02-19 17:20:00,
2013-02-19 08:25:00,16.3,8.9,29.62,SW,235,1.0,3.0,72,0.00,,,0.00,Wunderground v.1.15,2013-02-19 17:25:00,
2013-02-19 08:31:00,16.2,9.4,29.61,WSW,257,1.0,1.0,74,0.00,,,0.00,Wunderground v.1.15,2013-02-19 17:31:00,
2013-02-19 08:36:00,16.1,9.3,29.61,SSW,196,0.0,2.0,74,0.00,,,0.00,Wunderground v.1.15,2013-02-19 17:36:00,
2013-02-19 08:41:00,16.1,9.0,29.61,SSW,210,2.0,4.0,73,0.00,,,0.00,Wunderground v.1.15,2013-02-19 17:41:00,
2013-02-19 08:46:00,16.1,9.0,29.61,SW,222,3.0,4.0,73,0.00,,,0.00,Wunderground v.1.15,2013-02-19 17:46:00,
2013-02-19 08:51:00,16.2,9.1,29.60,WSW,237,3.0,5.0,73,0.00,,,0.00,Wunderground v.1.15,2013-02-19 17:51:00,
2013-02-19 08:56:00,16.8,9.6,29.60,WNW,297,3.0,5.0,73,0.00,,,0.00,Wunderground v.1.15,2013-02-19 17:56:00,
2013-02-19 09:01:00,17.6,10.1,29.59,West,277,3.0,5.0,72,0.00,,,0.00,Wunderground v.1.15,2013-02-19 18:01:00,
2013-02-19 09:07:00,17.5,10.0,29.59,WSW,248,1.0,5.0,72,0.00,,,0.00,Wunderground v.1.15,2013-02-19 18:07:00,
2013-02-19 09:12:00,17.1,9.9,29.59,WSW,238,0.0,5.0,73,0.00,,,0.00,Wunderground v.1.15,2013-02-19 18:12:00,
2013-02-19 09:18:00,17.0,10.1,29.58,WSW,237,0.0,5.0,74,0.00,,,0.00,Wunderground v.1.15,2013-02-19 18:18:00,
2013-02-19 09:24:00,17.0,10.4,29.58,WNW,291,1.0,5.0,75,0.00,,,0.00,Wunderground v.1.15,2013-02-19 18:24:00,
2013-02-19 09:29:00,18.5,11.0,29.57,WNW,299,3.0,6.0,72,0.00,,,0.00,Wunderground v.1.15,2013-02-19 18:29:00,
2013-02-19 09:35:00,19.9,11.4,29.57,WNW,285,3.0,6.0,69,0.00,,,0.00,Wunderground v.1.15,2013-02-19 18:35:00,
2013-02-19 09:41:00,19.1,10.9,29.57,WNW,289,1.0,5.0,70,0.00,,,0.00,Wunderground v.1.15,2013-02-19 18:41:00,
2013-02-19 09:47:00,18.9,11.0,29.57,WNW,289,0.0,5.0,71,0.00,,,0.00,Wunderground v.1.15,2013-02-19 18:47:00,
2013-02-19 09:52:00,18.6,11.4,29.57,West,279,1.0,5.0,73,0.00,,,0.00,Wunderground v.1.15,2013-02-19 18:52:00,
2013-02-19 09:58:00,18.4,11.2,29.56,West,279,0.0,5.0,73,0.00,,,0.00,Wunderground v.1.15,2013-02-19 18:58:00,
2013-02-19 10:03:00,18.2,11.3,29.56,West,279,0.0,4.0,74,0.00,,,0.00,Wunderground v.1.15,2013-02-19 19:03:00,
2013-02-19 10:08:00,18.1,11.5,29.55,West,279,0.0,4.0,75,0.00,,,0.00,Wunderground v.1.15,2013-02-19 19:08:00,
2013-02-19 10:13:00,18.0,11.4,29.56,NE,56,0.0,4.0,75,0.00,,,0.00,Wunderground v.1.15,2013-02-19 19:13:00,
2013-02-19 10:19:00,17.8,10.9,29.55,South,190,1.0,1.0,74,0.00,,,0.00,Wunderground v.1.15,2013-02-19 19:19:00,
2013-02-19 10:25:00,17.8,11.2,29.55,South,180,0.0,4.0,75,0.00,,,0.00,Wunderground v.1.15,2013-02-19 19:25:00,
2013-02-19 10:30:00,17.7,11.1,29.55,South,185,0.0,4.0,75,0.00,,,0.00,Wunderground v.1.15,2013-02-19 19:30:00,
2013-02-19 10:36:00,17.6,11.3,29.54,SW,216,1.0,4.0,76,0.00,,,0.00,Wunderground v.1.15,2013-02-19 19:36:00,
2013-02-19 10:41:00,17.7,11.4,29.55,SE,126,1.0,4.0,76,0.00,,,0.00,Wunderground v.1.15,2013-02-19 19:41:00,
2013-02-19 10:47:00,17.9,11.6,29.54,SSW,194,0.0,4.0,76,0.00,,,0.00,Wunderground v.1.15,2013-02-19 19:47:00,
2013-02-19 10:53:00,18.1,11.8,29.53,ENE,77,0.0,4.0,76,0.00,,,0.00,Wunderground v.1.15,2013-02-19 19:53:00,
2013-02-19 10:59:00,18.1,12.1,29.52,ENE,60,1.0,4.0,77,0.00,,,0.00,Wunderground v.1.15,2013-02-19 19:59:00,
2013-02-19 11:04:00,18.0,11.7,29.52,NE,43,1.0,3.0,76,0.00,,,0.00,Wunderground v.1.15,2013-02-19 20:04:00,
2013-02-19 11:10:00,18.1,12.1,29.51,ENE,64,1.0,1.0,77,0.00,,,0.00,Wunderground v.1.15,2013-02-19 20:10:00,
2013-02-19 11:15:00,18.2,12.2,29.52,East,81,1.0,3.0,77,0.00,,,0.00,Wunderground v.1.15,2013-02-19 20:15:00,
2013-02-19 11:20:00,18.3,12.0,29.52,East,80,1.0,3.0,76,0.00,,,0.00,Wunderground v.1.15,2013-02-19 20:20:00,
2013-02-19 11:26:00,18.5,12.2,29.51,ENE,60,0.0,3.0,76,0.00,,,0.00,Wunderground v.1.15,2013-02-19 20:26:00,
2013-02-19 11:33:00,18.7,12.4,29.51,West,267,0.0,3.0,76,0.00,,,0.00,Wunderground v.1.15,2013-02-19 20:33:00,
2013-02-19 11:38:00,19.8,13.5,29.50,NW,312,2.0,7.0,76,0.00,,,0.00,Wunderground v.1.15,2013-02-19 20:38:00,
2013-02-19 11:43:00,20.4,13.7,29.49,ENE,68,2.0,3.0,75,0.00,,,0.00,Wunderground v.1.15,2013-02-19 20:43:00,
2013-02-19 11:50:00,19.8,12.8,29.49,WNW,282,1.0,1.0,74,0.00,,,0.00,Wunderground v.1.15,2013-02-19 20:50:00,
2013-02-19 11:55:00,19.6,13.0,29.48,West,269,0.0,3.0,75,0.00,,,0.00,Wunderground v.1.15,2013-02-19 20:55:00,
2013-02-19 12:00:00,20.1,13.1,29.48,WNW,302,1.0,1.0,74,0.00,,,0.00,Wunderground v.1.15,2013-02-19 21:00:00,
2013-02-19 12:05:00,20.3,13.3,29.48,NE,53,1.0,3.0,74,0.00,,,0.00,Wunderground v.1.15,2013-02-19 21:05:00,
2013-02-19 12:11:00,20.0,13.6,29.47,WNW,291,0.0,3.0,76,0.00,,,0.00,Wunderground v.1.15,2013-02-19 21:11:00,
2013-02-19 12:17:00,21.1,14.1,29.47,NE,42,1.0,3.0,74,0.00,,,0.00,Wunderground v.1.15,2013-02-19 21:17:00,
2013-02-19 12:22:00,21.6,14.9,29.45,NW,319,1.0,3.0,75,0.00,,,0.00,Wunderground v.1.15,2013-02-19 21:22:00,
2013-02-19 12:28:00,22.4,15.1,29.45,NNW,329,2.0,4.0,73,0.00,,,0.00,Wunderground v.1.15,2013-02-19 21:28:00,
2013-02-19 12:34:00,22.7,15.0,29.45,North,8,2.0,3.0,72,0.00,,,0.00,Wunderground v.1.15,2013-02-19 21:34:00,
2013-02-19 12:40:00,21.5,14.8,29.44,NNW,330,1.0,3.0,75,0.00,,,0.00,Wunderground v.1.15,2013-02-19 21:40:00,
2013-02-19 12:45:00,20.8,14.4,29.44,ENE,77,0.0,3.0,76,0.00,,,0.00,Wunderground v.1.15,2013-02-19 21:45:00,
2013-02-19 12:51:00,20.3,14.2,29.44,WSW,251,0.0,3.0,77,0.00,,,0.00,Wunderground v.1.15,2013-02-19 21:51:00,
2013-02-19 12:56:00,20.1,14.3,29.43,WNW,289,1.0,3.0,78,0.00,,,0.00,Wunderground v.1.15,2013-02-19 21:56:00,
2013-02-19 13:01:00,20.2,14.7,29.42,West,274,2.0,5.0,79,0.00,,,0.00,Wunderground v.1.15,2013-02-19 22:01:00,
2013-02-19 13:08:00,20.8,15.0,29.41,NW,311,2.0,5.0,78,0.00,,,0.00,Wunderground v.1.15,2013-02-19 22:08:00,
2013-02-19 13:14:00,25.0,20.3,29.39,NW,325,4.0,9.0,82,0.00,,,0.00,Wunderground v.1.15,2013-02-19 22:14:00,
2013-02-19 13:20:00,27.7,21.4,29.38,NNW,332,8.0,12.0,77,0.00,,,0.00,Wunderground v.1.15,2013-02-19 22:20:00,
2013-02-19 13:25:00,28.4,21.8,29.37,NNW,345,10.0,13.0,76,0.00,,,0.00,Wunderground v.1.15,2013-02-19 22:25:00,
2013-02-19 13:31:00,28.9,22.3,29.37,NNW,338,7.0,8.0,76,0.00,,,0.00,Wunderground v.1.15,2013-02-19 22:31:00,
2013-02-19 13:36:00,28.6,21.0,29.37,NNE,17,5.0,8.0,73,0.00,,,0.00,Wunderground v.1.15,2013-02-19 22:36:00,
2013-02-19 13:41:00,26.5,17.7,29.36,NNE,14,3.0,3.0,69,0.00,,,0.00,Wunderground v.1.15,2013-02-19 22:41:00,
2013-02-19 13:47:00,25.2,17.4,29.36,SE,127,1.0,3.0,72,0.00,,,0.00,Wunderground v.1.15,2013-02-19 22:47:00,
2013-02-19 13:52:00,23.1,16.0,29.35,West,266,1.0,3.0,74,0.00,,,0.00,Wunderground v.1.15,2013-02-19 22:52:00,
2013-02-19 13:58:00,23.8,19.1,29.35,North,349,3.0,6.0,82,0.00,,,0.00,Wunderground v.1.15,2013-02-19 22:58:00,
2013-02-19 14:03:00,26.3,20.7,29.35,NW,326,2.0,6.0,79,0.00,,,0.00,Wunderground v.1.15,2013-02-19 23:03:00,
2013-02-19 14:09:00,26.2,18.7,29.34,NNW,328,2.0,6.0,73,0.00,,,0.00,Wunderground v.1.15,2013-02-19 23:09:00,
2013-02-19 14:15:00,24.9,18.1,29.34,SSW,209,2.0,5.0,75,0.00,,,0.00,Wunderground v.1.15,2013-02-19 23:15:00,
2013-02-19 14:21:00,23.8,17.0,29.34,SW,228,3.0,5.0,75,0.00,,,0.00,Wunderground v.1.15,2013-02-19 23:21:00,
2013-02-19 14:26:00,23.8,17.6,29.34,South,189,3.0,5.0,77,0.00,,,0.00,Wunderground v.1.15,2013-02-19 23:26:00,
2013-02-19 14:31:00,23.8,18.2,29.34,WSW,248,4.0,5.0,79,0.00,,,0.00,Wunderground v.1.15,2013-02-19 23:31:00,
2013-02-19 14:36:00,24.8,19.8,29.34,SW,232,3.0,6.0,81,0.00,,,0.00,Wunderground v.1.15,2013-02-19 23:36:00,
2013-02-19 14:42:00,26.1,21.4,29.33,WNW,301,3.0,5.0,82,0.00,,,0.00,Wunderground v.1.15,2013-02-19 23:42:00,
2013-02-19 14:48:00,27.3,21.9,29.32,NNW,335,2.0,5.0,80,0.00,,,0.00,Wunderground v.1.15,2013-02-19 23:48:00,
2013-02-19 14:54:00,28.7,23.0,29.31,NNW,330,4.0,8.0,79,0.00,,,0.00,Wunderground v.1.15,2013-02-19 23:54:00,
2013-02-19 15:00:00,29.6,23.3,29.31,WNW,294,5.0,5.0,77,0.00,,,0.00,Wunderground v.1.15,2013-02-20 00:00:00,
2013-02-19 15:05:00,29.4,22.5,29.30,NNE,23,4.0,12.0,75,0.00,,,0.00,Wunderground v.1.15,2013-02-20 00:05:00,
2013-02-19 15:11:00,29.1,22.2,29.29,ENE,60,3.0,12.0,75,0.00,,,0.00,Wunderground v.1.15,2013-02-20 00:11:00,
2013-02-19 15:16:00,28.1,21.2,29.29,NNW,347,2.0,12.0,75,0.00,,,0.00,Wunderground v.1.15,2013-02-20 00:16:00,
2013-02-19 15:21:00,26.8,20.2,29.29,NNE,25,2.0,12.0,76,0.00,,,0.00,Wunderground v.1.15,2013-02-20 00:21:00,
2013-02-19 15:27:00,26.3,20.7,29.28,North,354,3.0,12.0,79,0.00,,,0.00,Wunderground v.1.15,2013-02-20 00:27:00,
2013-02-19 15:33:00,26.2,20.6,29.27,North,350,4.0,12.0,79,0.00,,,0.00,Wunderground v.1.15,2013-02-20 00:33:00,
2013-02-19 15:39:00,25.6,20.6,29.27,NNE,22,3.0,12.0,81,0.00,,,0.00,Wunderground v.1.15,2013-02-20 00:39:00,
2013-02-19 15:44:00,25.6,20.6,29.26,North,8,3.0,12.0,81,0.00,,,0.00,Wunderground v.1.15,2013-02-20 00:44:00,
2013-02-19 15:49:00,26.3,21.3,29.26,NE,46,2.0,2.0,81,0.00,,,0.00,Wunderground v.1.15,2013-02-20 00:49:00,
2013-02-19 15:55:00,25.9,20.9,29.26,NE,39,3.0,12.0,81,0.00,,,0.00,Wunderground v.1.15,2013-02-20 00:55:00,
2013-02-19 16:01:00,25.8,20.8,29.26,NE,53,2.0,8.0,81,0.00,,,0.00,Wunderground v.1.15,2013-02-20 01:01:00,
2013-02-19 16:07:00,25.7,20.1,29.26,SSW,193,2.0,8.0,79,0.00,,,0.00,Wunderground v.1.15,2013-02-20 01:07:00,
2013-02-19 16:12:00,25.2,20.2,29.25,NW,322,1.0,8.0,81,0.00,,,0.00,Wunderground v.1.15,2013-02-20 01:12:00,
2013-02-19 16:18:00,25.0,20.3,29.25,NNW,343,2.0,8.0,82,0.00,,,0.00,Wunderground v.1.15,2013-02-20 01:18:00,
2013-02-19 16:23:00,26.0,21.3,29.25,NE,37,4.0,8.0,82,0.00,,,0.00,Wunderground v.1.15,2013-02-20 01:23:00,
2013-02-19 16:28:00,26.1,21.6,29.24,North,11,4.0,8.0,83,0.00,,,0.00,Wunderground v.1.15,2013-02-20 01:28:00,
2013-02-19 16:34:00,26.9,22.4,29.24,NNE,28,4.0,8.0,83,0.00,,,0.00,Wunderground v.1.15,2013-02-20 01:34:00,
2013-02-19 16:39:00,26.7,21.7,29.24,NNW,348,3.0,8.0,81,0.00,,,0.00,Wunderground v.1.15,2013-02-20 01:39:00,
2013-02-19 16:45:00,27.6,22.8,29.23,ENE,68,4.0,8.0,82,0.00,,,0.00,Wunderground v.1.15,2013-02-20 01:45:00,
2013-02-19 16:50:00,26.4,21.4,29.23,North,354,5.0,8.0,81,0.00,,,0.00,Wunderground v.1.15,2013-02-20 01:50:00,
2013-02-19 16:56:00,25.7,21.0,29.23,North,9,5.0,8.0,82,0.00,,,0.00,Wunderground v.1.15,2013-02-20 01:56:00,
2013-02-19 17:02:00,26.2,21.7,29.23,North,349,5.0,12.0,83,0.00,,,0.00,Wunderground v.1.15,2013-02-20 02:02:00,
2013-02-19 17:08:00,27.0,22.2,29.22,North,354,6.0,12.0,82,0.00,,,0.00,Wunderground v.1.15,2013-02-20 02:08:00,
2013-02-19 17:13:00,27.5,23.6,29.23,North,4,7.0,16.0,85,0.00,,,0.00,Wunderground v.1.15,2013-02-20 02:13:00,
2013-02-19 17:19:00,28.9,24.4,29.22,NE,52,7.0,16.0,83,0.00,,,0.00,Wunderground v.1.15,2013-02-20 02:19:00,
2013-02-19 17:25:00,29.2,24.4,29.22,NNE,24,6.0,12.0,82,0.00,,,0.00,Wunderground v.1.15,2013-02-20 02:25:00,
2013-02-19 17:31:00,29.3,24.5,29.22,NW,311,5.0,12.0,82,0.00,,,0.00,Wunderground v.1.15,2013-02-20 02:31:00,
2013-02-19 17:36:00,29.4,24.6,29.22,North,4,5.0,12.0,82,0.00,,,0.00,Wunderground v.1.15,2013-02-20 02:36:00,
2013-02-19 17:42:00,29.5,24.7,29.21,NNW,345,3.0,12.0,82,0.00,,,0.00,Wunderground v.1.15,2013-02-20 02:42:00,
2013-02-19 17:47:00,29.8,25.3,29.21,NNE,31,5.0,12.0,83,0.00,,,0.00,Wunderground v.1.15,2013-02-20 02:47:00,
2013-02-19 17:53:00,29.8,25.3,29.20,NE,37,5.0,12.0,83,0.00,,,0.00,Wunderground v.1.15,2013-02-20 02:53:00,
2013-02-19 18:00:00,29.7,25.2,29.19,NNW,341,5.0,5.0,83,0.00,,,0.00,Wunderground v.1.15,2013-02-20 03:00:00,
2013-02-19 18:05:00,29.6,25.4,29.19,NNE,15,5.0,12.0,84,0.00,,,0.00,Wunderground v.1.15,2013-02-20 03:05:00,
2013-02-19 18:10:00,29.4,25.4,29.19,North,359,5.0,12.0,85,0.00,,,0.00,Wunderground v.1.15,2013-02-20 03:10:00,
2013-02-19 18:17:00,29.3,25.4,29.19,NNW,348,4.0,12.0,85,0.00,,,0.00,Wunderground v.1.15,2013-02-20 03:17:00,
2013-02-19 18:23:00,29.3,25.6,29.18,WNW,303,5.0,12.0,86,0.00,,,0.00,Wunderground v.1.15,2013-02-20 03:23:00,
2013-02-19 18:29:00,29.3,25.6,29.18,North,349,5.0,12.0,86,0.00,,,0.00,Wunderground v.1.15,2013-02-20 03:29:00,
2013-02-19 18:35:00,29.4,25.7,29.17,NNW,348,7.0,12.0,86,0.00,,,0.00,Wunderground v.1.15,2013-02-20 03:35:00,
2013-02-19 18:40:00,29.4,25.7,29.17,NW,324,9.0,12.0,86,0.00,,,0.00,Wunderground v.1.15,2013-02-20 03:40:00,
2013-02-19 18:46:00,29.4,25.7,29.16,North,4,11.0,14.0,86,0.00,,,0.00,Wunderground v.1.15,2013-02-20 03:46:00,
2013-02-19 18:51:00,29.6,25.6,29.17,NW,311,10.0,12.0,85,0.00,,,0.00,Wunderground v.1.15,2013-02-20 03:51:00,
2013-02-19 18:57:00,29.7,25.5,29.17,NNW,343,10.0,14.0,84,0.00,,,0.00,Wunderground v.1.15,2013-02-20 03:57:00,
2013-02-19 19:03:00,29.6,25.1,29.16,NNE,17,9.0,20.0,83,0.00,,,0.00,Wunderground v.1.15,2013-02-20 04:03:00,
2013-02-19 19:08:00,29.6,25.1,29.16,NNE,26,7.0,20.0,83,0.00,,,0.00,Wunderground v.1.15,2013-02-20 04:08:00,
2013-02-19 19:14:00,29.7,25.2,29.16,NNE,28,8.0,20.0,83,0.00,,,0.00,Wunderground v.1.15,2013-02-20 04:14:00,
2013-02-19 19:20:00,29.7,25.2,29.15,NNW,339,8.0,20.0,83,0.00,,,0.00,Wunderground v.1.15,2013-02-20 04:20:00,
2013-02-19 19:26:00,29.6,25.4,29.15,NW,320,8.0,20.0,84,0.00,,,0.00,Wunderground v.1.15,2013-02-20 04:26:00,
2013-02-19 19:32:00,29.7,25.5,29.15,NNW,343,8.0,20.0,84,0.00,,,0.00,Wunderground v.1.15,2013-02-20 04:32:00,
2013-02-19 19:37:00,29.8,25.6,29.14,North,359,8.0,20.0,84,0.00,,,0.00,Wunderground v.1.15,2013-02-20 04:37:00,
2013-02-19 19:42:00,29.8,25.6,29.15,North,4,8.0,20.0,84,0.00,,,0.00,Wunderground v.1.15,2013-02-20 04:42:00,
2013-02-19 19:48:00,29.8,25.8,29.15,North,4,7.0,20.0,85,0.00,,,0.00,Wunderground v.1.15,2013-02-20 04:48:00,
2013-02-19 19:54:00,29.7,25.7,29.14,NNE,18,8.0,20.0,85,0.00,,,0.00,Wunderground v.1.15,2013-02-20 04:54:00,
2013-02-19 20:00:00,29.5,26.1,29.14,NNW,342,8.0,21.0,87,0.00,,,0.00,Wunderground v.1.15,2013-02-20 05:00:00,
2013-02-19 20:03:00,29.4,26.0,29.14,North,359,8.0,21.0,87,0.00,,,0.00,Wunderground v.1.15,2013-02-20 05:03:00,
2013-02-19 20:06:00,29.3,26.2,29.14,North,10,8.0,21.0,88,0.00,,,0.00,Wunderground v.1.15,2013-02-20 05:06:00,
2013-02-19 20:12:00,29.3,25.9,29.14,NE,43,10.0,21.0,87,0.00,,,0.00,Wunderground v.1.15,2013-02-20 05:12:00,
2013-02-19 20:18:00,29.1,25.7,29.14,NNW,341,9.0,21.0,87,0.00,,,0.00,Wunderground v.1.15,2013-02-20 05:18:00,
2013-02-19 20:23:00,29.1,25.7,29.14,NNE,21,8.0,21.0,87,0.00,,,0.00,Wunderground v.1.15,2013-02-20 05:23:00,
2013-02-19 20:28:00,29.2,25.5,29.14,NNW,335,9.0,21.0,86,0.00,,,0.00,Wunderground v.1.15,2013-02-20 05:28:00,
2013-02-19 20:34:00,29.4,25.2,29.14,NW,321,9.0,21.0,84,0.00,,,0.00,Wunderground v.1.15,2013-02-20 05:34:00,
2013-02-19 20:41:00,29.7,25.5,29.14,North,350,9.0,21.0,84,0.00,,,0.00,Wunderground v.1.15,2013-02-20 05:41:00,
2013-02-19 20:46:00,29.9,25.1,29.14,NNW,347,9.0,21.0,82,0.00,,,0.00,Wunderground v.1.15,2013-02-20 05:46:00,
2013-02-19 20:53:00,30.2,25.1,29.14,North,4,10.0,21.0,81,0.00,,,0.00,Wunderground v.1.15,2013-02-20 05:53:00,
2013-02-19 20:59:00,30.4,25.0,29.14,NNW,332,8.0,21.0,80,0.00,,,0.00,Wunderground v.1.15,2013-02-20 05:59:00,
2013-02-19 21:04:00,30.3,24.9,29.14,NNW,347,9.0,17.0,80,0.00,,,0.00,Wunderground v.1.15,2013-02-20 06:04:00,
2013-02-19 21:11:00,30.1,24.7,29.13,North,354,9.0,15.0,80,0.00,,,0.00,Wunderground v.1.15,2013-02-20 06:11:00,
2013-02-19 21:17:00,29.9,24.8,29.13,North,354,10.0,17.0,81,0.00,,,0.00,Wunderground v.1.15,2013-02-20 06:17:00,
2013-02-19 21:22:00,29.8,24.7,29.12,NNW,331,11.0,17.0,81,0.00,,,0.00,Wunderground v.1.15,2013-02-20 06:22:00,
2013-02-19 21:28:00,29.7,24.9,29.12,North,354,10.0,17.0,82,0.00,,,0.00,Wunderground v.1.15,2013-02-20 06:28:00,
2013-02-19 21:35:00,29.7,25.2,29.12,North,354,10.0,17.0,83,0.00,,,0.00,Wunderground v.1.15,2013-02-20 06:35:00,
2013-02-19 21:41:00,29.7,25.2,29.13,North,359,10.0,17.0,83,0.00,,,0.00,Wunderground v.1.15,2013-02-20 06:41:00,
2013-02-19 21:47:00,30.1,25.3,29.12,North,354,9.0,17.0,82,0.00,,,0.00,Wunderground v.1.15,2013-02-20 06:47:00,
2013-02-19 21:52:00,30.4,25.3,29.12,NNW,347,9.0,17.0,81,0.00,,,0.00,Wunderground v.1.15,2013-02-20 06:52:00,
2013-02-19 21:58:00,30.6,25.2,29.12,NNW,344,9.0,17.0,80,0.00,,,0.00,Wunderground v.1.15,2013-02-20 06:58:00,
2013-02-19 22:04:00,30.6,25.2,29.12,North,8,8.0,17.0,80,0.00,,,0.00,Wunderground v.1.15,2013-02-20 07:04:00,
2013-02-19 22:10:00,30.5,25.1,29.11,NNW,344,7.0,7.0,80,0.00,,,0.00,Wunderground v.1.15,2013-02-20 07:10:00,
2013-02-19 22:16:00,30.5,25.1,29.11,North,349,6.0,17.0,80,0.00,,,0.00,Wunderground v.1.15,2013-02-20 07:16:00,
2013-02-19 22:22:00,30.5,25.1,29.11,North,354,7.0,17.0,80,0.00,,,0.00,Wunderground v.1.15,2013-02-20 07:22:00,
2013-02-19 22:27:00,30.4,25.0,29.11,North,354,7.0,17.0,80,0.00,,,0.00,Wunderground v.1.15,2013-02-20 07:27:00,
2013-02-19 22:33:00,30.4,25.0,29.11,NNW,339,6.0,17.0,80,0.00,,,0.00,Wunderground v.1.15,2013-02-20 07:33:00,
2013-02-19 22:40:00,30.2,24.8,29.11,North,354,6.0,6.0,80,0.00,,,0.00,Wunderground v.1.15,2013-02-20 07:40:00,
2013-02-19 22:46:00,30.3,24.9,29.11,WNW,293,6.0,17.0,80,0.00,,,0.00,Wunderground v.1.15,2013-02-20 07:46:00,
2013-02-19 22:52:00,29.7,24.6,29.11,NNW,335,6.0,17.0,81,0.00,,,0.00,Wunderground v.1.15,2013-02-20 07:52:00,
2013-02-19 22:57:00,29.3,24.8,29.11,North,354,4.0,17.0,83,0.00,,,0.00,Wunderground v.1.15,2013-02-20 07:57:00,
2013-02-19 23:05:00,30.3,25.5,29.11,NNW,343,6.0,14.0,82,0.00,,,0.00,Wunderground v.1.15,2013-02-20 08:05:00,
2013-02-19 23:11:00,30.5,25.4,29.11,NNW,342,7.0,12.0,81,0.00,,,0.00,Wunderground v.1.15,2013-02-20 08:11:00,
2013-02-19 23:16:00,30.4,25.3,29.11,NNE,14,5.0,12.0,81,0.00,,,0.00,Wunderground v.1.15,2013-02-20 08:16:00,
2013-02-19 23:22:00,30.2,25.4,29.11,North,8,6.0,12.0,82,0.00,,,0.00,Wunderground v.1.15,2013-02-20 08:22:00,
2013-02-19 23:27:00,30.2,25.4,29.10,NNW,335,7.0,12.0,82,0.00,,,0.00,Wunderground v.1.15,2013-02-20 08:27:00,
2013-02-19 23:33:00,29.9,25.1,29.11,NE,35,5.0,12.0,82,0.00,,,0.00,Wunderground v.1.15,2013-02-20 08:33:00,
2013-02-19 23:39:00,29.9,25.1,29.10,NNE,19,5.0,12.0,82,0.00,,,0.00,Wunderground v.1.15,2013-02-20 08:39:00,
2013-02-19 23:45:00,30.0,25.2,29.10,NW,326,3.0,12.0,82,0.00,,,0.00,Wunderground v.1.15,2013-02-20 08:45:00,
2013-02-19 23:51:00,30.0,25.2,29.11,NNW,335,3.0,8.0,82,0.00,,,0.00,Wunderground v.1.15,2013-02-20 08:51:00,
2013-02-19 23:56:00,30.0,25.2,29.11,NNE,25,4.0,12.0,82,0.00,,,0.00,Wunderground v.1.15,2013-02-20 08:56:00,